Corona, Arizona
Current Conditions -  °F | °C
As of 2:53 AM on Thursday 23 Oct 2014 (Local Time) from KTUS Reporting Station
Clear Clear  
Wind Chill: 64°   Ceiling: Unl
Heat Index: 64°   Visibility: 10mi
Dew Point: 49°   Wind: 8mph
Humidity: 58%   Direction: 150°SSE
Pressure: 30.07"   Gusts: NA
Location:  31.9353°N, 110.697°W
Report Text: KTUS 230953Z 15007KT 10SM CLR 18/09 A3007 RMK AO2 SLP141 T01780094
Loading
Personal Weather Stations






























Interactive Weather Map
Tropical Storm Tracking
New forecast layout! Learn more

10-Day Weather Forecast

Advertisements
Track Severe Weather on mobile